Página principal
METAR-TAF:

METAR-TAF

Aeroportos :

Aeroporto Internacional Ninoy Aquino

Manila, Filipinas

latitude: 14-31N, longitude: 121-00E, altura: 14 m

Observação actual do tempo

O boletim foi feito há 54 minutos, às 02:00 UTC
Vento 7 kt de es-sudeste, variando entre es-nordeste e su-sudeste
Temperatura 31°C
Humidade 63%
Pressão 1016 hPa
Visibilidade 10 km ou mais
Nuvens dispersasa uma altura de 2500 ft

METAR: RPLL 230200Z 11007KT 070V160 9999 SCT025 31/23 Q1016 NOSIG RMK A3000

Hora: 10:54 (02:54 UTC)

Previsão

O boletim foi feito há 3 horas e 54 minutos, às 23:00 UTC
Previsão válida de 23 às 00 UTC a 24 às 06 UTC
Vento 7 kt de es-sudeste
Visibilidade 10 km ou mais
Poucas nuvensa uma altura de 2500 ft
Temporariamente
de 23 às 03 UTC a 23 às 09 UTC
Vento 12 kt de este
Nuvens dispersasa uma altura de 2500 ft
Nuvens fragmentadasa uma altura de 10000 ft

TAF: RPLL 222300Z 2300/2406 12007KT 9999 FEW025 TX33/2305Z TN26/2321Z TEMPO 2303/2309 10012KT SCT025 BKN100

Observações e previsões do tempo de mais de 4000 aeroportos (mensagens METAR e TAF).

As estações disponíveis são os pontos amarelos e vermelhos sobre o mapa.

Mova o rato sobre o mapa para ver o nome da estação.

Depois clique no ponto para visualizar as observações e previsões meteorológicas.

Para alterar o mapa : clique nos botões verdes com uma cruz preta para aumentar o zoom; no botão verde com uma pitada de zoom; ou nas setas verdes para mapas adjacentes.


METAR-TAF: